Time;durP1;ratioP1;P1;durP2;ratioP2;P2;SDS_P1;SDS_P2;PMS_P1;PMS_P2;Temp;Humidity;BMP_temperature;BMP_pressure;BME280_temperature;BME280_humidity;BME280_pressure;Samples;Min_cycle;Max_cycle;Signal;HPM_P1;HPM_P2
2022/06/08 00:02:06;;;;;;;9.85;1.70;;;;;;;12.83;78.30;95613.97;5094082;28;20069;-59
2022/06/08 00:04:32;;;;;;;2.25;1.20;;;;;;;12.87;77.85;95610.03;5102626;28;20534;-59
2022/06/08 00:06:58;;;;;;;9.57;1.77;;;;;;;12.91;77.45;95602.63;5097116;28;20066;-59
2022/06/08 00:09:23;;;;;;;3.17;1.63;;;;;;;12.78;78.17;95605.72;5092433;28;20024;-59
2022/06/08 00:11:48;;;;;;;2.58;1.60;;;;;;;12.75;78.77;95596.28;5099361;28;20386;-59
2022/06/08 00:14:15;;;;;;;1.70;1.60;;;;;;;12.73;78.22;95595.59;5091206;28;20043;-59
2022/06/08 00:16:41;;;;;;;5.30;1.75;;;;;;;12.77;78.27;95593.50;5097313;28;20028;-59
2022/06/08 00:19:06;;;;;;;10.75;1.60;;;;;;;12.68;80.47;95592.63;5101448;28;20030;-59
2022/06/08 00:21:32;;;;;;;4.78;2.20;;;;;;;12.69;79.19;95590.78;5094338;28;20073;-60
2022/06/08 00:23:58;;;;;;;4.97;1.70;;;;;;;12.65;80.09;95592.09;5097256;28;20028;-60
2022/06/08 00:26:24;;;;;;;4.38;1.42;;;;;;;12.60;78.99;95587.31;5091978;28;20012;-59
2022/06/08 00:28:51;;;;;;;1.60;1.50;;;;;;;12.55;80.42;95586.91;5095607;28;20090;-59
2022/06/08 00:31:17;;;;;;;9.57;2.00;;;;;;;12.46;81.14;95584.25;5089559;28;20065;-59
2022/06/08 00:33:42;;;;;;;3.13;1.90;;;;;;;12.46;80.80;95583.41;5099060;28;20024;-59
2022/06/08 00:36:08;;;;;;;1.73;1.40;;;;;;;12.44;79.85;95582.72;5094793;28;20035;-59
2022/06/08 00:38:35;;;;;;;1.95;1.50;;;;;;;12.41;79.94;95575.13;5097814;28;20039;-59
2022/06/08 00:41:00;;;;;;;5.22;1.50;;;;;;;12.42;79.65;95575.00;5092029;28;20095;-59
2022/06/08 00:43:26;;;;;;;5.43;1.60;;;;;;;12.41;79.46;95572.50;5099418;28;20123;-59
2022/06/08 00:45:52;;;;;;;5.07;1.63;;;;;;;12.32;80.28;95575.09;5095234;28;20107;-59
2022/06/08 00:48:19;;;;;;;3.15;1.40;;;;;;;12.36;80.05;95564.22;5100813;28;20488;-59
2022/06/08 00:50:52;;;;;;;2.03;1.50;;;;;;;12.37;80.37;95560.59;5091919;28;20032;-59
2022/06/08 00:53:22;;;;;;;4.35;1.40;;;;;;;12.31;81.61;95560.25;5093031;28;20126;-59
2022/06/08 00:55:48;;;;;;;1.27;1.27;;;;;;;12.27;80.91;95558.06;5097535;28;20040;-59
2022/06/08 00:58:19;;;;;;;1.90;1.80;;;;;;;12.29;81.91;95562.22;5096445;28;20058;-59
2022/06/08 01:00:45;;;;;;;2.05;1.55;;;;;;;12.29;80.88;95556.09;5099106;28;20065;-59
2022/06/08 01:03:14;;;;;;;1.45;1.35;;;;;;;12.32;80.09;95558.41;5092909;28;20031;-59
2022/06/08 01:05:56;;;;;;;2.00;1.67;;;;;;;12.30;80.15;95557.75;5091687;28;20612;-59
2022/06/08 01:08:54;;;;;;;1.55;1.40;;;;;;;12.31;79.43;95554.97;5090528;28;20123;-59
2022/06/08 01:11:28;;;;;;;6.60;1.33;;;;;;;12.32;79.14;95551.34;5074949;28;20488;-59
2022/06/08 01:13:59;;;;;;;4.38;1.30;;;;;;;12.30;79.92;95547.19;5089644;28;20024;-59
2022/06/08 01:16:25;;;;;;;1.45;1.35;;;;;;;12.25;80.89;95555.56;5095297;28;20025;-59
2022/06/08 01:18:51;;;;;;;2.80;1.60;;;;;;;12.24;80.52;95550.47;5098669;28;20046;-60
2022/06/08 01:21:36;;;;;;;3.88;1.48;;;;;;;12.13;83.07;95544.44;5081732;28;20109;-59
2022/06/08 01:24:06;;;;;;;1.95;1.40;;;;;;;12.04;82.85;95546.19;5092246;28;20489;-59
2022/06/08 01:26:34;;;;;;;3.10;1.42;;;;;;;12.08;80.87;95536.16;5096598;28;20024;-60
2022/06/08 01:29:44;;;;;;;1.70;1.60;;;;;;;12.14;79.93;95548.72;5099549;28;20119;-61
2022/06/08 01:32:18;;;;;;;5.38;1.60;;;;;;;12.17;80.55;95539.69;5105467;28;20462;-59
2022/06/08 01:34:59;;;;;;;2.13;1.88;;;;;;;12.05;81.75;95541.75;5099353;28;20027;-59
2022/06/08 01:37:27;;;;;;;2.45;1.95;;;;;;;12.01;82.42;95541.22;5107860;28;20075;-60
2022/06/08 01:40:30;;;;;;;1.77;1.67;;;;;;;12.00;81.81;95534.25;5101993;28;20042;-60
2022/06/08 01:43:14;;;;;;;1.67;1.65;;;;;;;12.07;81.22;95542.44;5105585;28;20035;-60
2022/06/08 01:46:11;;;;;;;1.80;1.70;;;;;;;12.13;80.94;95544.44;5101361;28;20116;-60
2022/06/08 01:48:50;;;;;;;3.80;1.70;;;;;;;12.04;83.11;95548.03;5104784;28;20107;-59
2022/06/08 01:51:16;;;;;;;1.98;1.80;;;;;;;11.95;82.46;95541.81;5105163;28;20050;-60
2022/06/08 01:53:50;;;;;;;2.80;1.65;;;;;;;11.97;81.51;95537.22;5103702;28;20482;-60
2022/06/08 01:56:34;;;;;;;2.95;1.60;;;;;;;12.00;82.12;95529.00;5101753;28;20090;-60
2022/06/08 01:59:15;;;;;;;1.63;1.52;;;;;;;12.03;81.63;95533.16;5106979;28;20031;-60
2022/06/08 02:02:20;;;;;;;1.52;1.42;;;;;;;12.07;81.74;95529.25;5100243;28;20478;-60
2022/06/08 02:05:03;;;;;;;2.55;1.65;;;;;;;11.88;82.45;95525.78;5108616;28;20059;-59
2022/06/08 02:08:01;;;;;;;2.05;1.85;;;;;;;11.83;82.17;95519.34;5097561;28;20082;-60
2022/06/08 02:10:59;;;;;;;1.52;1.50;;;;;;;11.81;82.61;95510.72;5101219;28;20102;-59
2022/06/08 02:13:48;;;;;;;1.60;1.50;;;;;;;11.84;83.15;95500.69;5102149;28;20106;-59
2022/06/08 02:16:20;;;;;;;3.20;1.63;;;;;;;11.83;82.78;95500.88;5101044;28;20054;-60
2022/06/08 02:18:51;;;;;;;1.98;1.60;;;;;;;11.79;82.37;95502.13;5106787;28;20064;-60
2022/06/08 02:21:28;;;;;;;2.20;1.85;;;;;;;11.78;82.58;95501.31;5103259;28;20509;-60
2022/06/08 02:24:00;;;;;;;1.60;1.50;;;;;;;11.78;83.84;95497.84;5102526;28;20020;-59
2022/06/08 02:26:57;;;;;;;1.63;1.52;;;;;;;11.74;83.41;95497.34;5095578;28;20028;-60
2022/06/08 02:29:29;;;;;;;1.73;1.63;;;;;;;11.75;82.71;95483.19;5081179;28;20395;-60
2022/06/08 02:34:27;;;;;;;1.90;1.80;;;;;;;11.71;82.57;95484.44;5099484;28;20111;-60
2022/06/08 02:34:51;;;;;;;1.92;1.60;;;;;;;11.70;82.57;95477.50;5095613;28;20090;-60
2022/06/08 02:37:22;;;;;;;5.10;1.60;;;;;;;11.72;83.42;95471.13;5096791;28;20028;-60
2022/06/08 02:39:54;;;;;;;1.98;1.73;;;;;;;11.67;85.05;95468.13;5091029;28;20039;-59
2022/06/08 02:42:25;;;;;;;1.70;1.60;;;;;;;11.62;85.57;95467.75;5103750;28;20078;-60
2022/06/08 02:44:55;;;;;;;5.68;1.90;;;;;;;11.57;85.31;95467.38;5103229;28;20039;-59
2022/06/08 02:47:30;;;;;;;1.77;1.63;;;;;;;11.50;85.67;95467.19;5101784;28;20027;-60
2022/06/08 02:49:59;;;;;;;3.13;2.10;;;;;;;11.60;84.93;95459.16;5095604;28;20016;-60
2022/06/08 02:52:28;;;;;;;3.50;1.85;;;;;;;11.69;84.97;95462.66;5102650;28;20051;-60
2022/06/08 02:54:54;;;;;;;2.10;1.90;;;;;;;11.76;84.98;95461.09;5098412;28;20016;-60
2022/06/08 02:57:41;;;;;;;2.75;1.90;;;;;;;11.75;84.27;95460.25;5105832;28;20046;-59
2022/06/08 03:00:14;;;;;;;4.05;1.70;;;;;;;11.85;83.28;95459.34;5103057;28;20098;-59
2022/06/08 03:02:46;;;;;;;1.67;1.58;;;;;;;11.91;82.66;95469.25;5098158;28;20044;-60
2022/06/08 03:05:19;;;;;;;1.75;1.55;;;;;;;11.92;82.24;95470.06;5095510;28;20024;-59
2022/06/08 03:07:54;;;;;;;1.67;1.58;;;;;;;11.89;82.09;95473.88;5105752;28;20027;-60
2022/06/08 03:10:21;;;;;;;4.13;1.85;;;;;;;11.89;82.51;95471.22;5100754;28;20080;-60
2022/06/08 03:13:00;;;;;;;1.58;1.48;;;;;;;11.87;82.52;95474.00;5094897;28;20390;-60
2022/06/08 03:15:26;;;;;;;1.85;1.70;;;;;;;11.93;81.96;95475.19;5100204;28;20474;-60
2022/06/08 03:17:51;;;;;;;1.70;1.60;;;;;;;11.90;82.18;95486.06;5099149;28;20065;-60
2022/06/08 03:20:19;;;;;;;3.67;2.00;;;;;;;11.87;82.37;95489.84;5093944;28;20103;-60
2022/06/08 03:22:44;;;;;;;2.35;1.85;;;;;;;11.79;84.15;95491.59;5106642;28;20449;-60
2022/06/08 03:25:10;;;;;;;3.35;1.77;;;;;;;11.73;84.26;95493.06;5095738;28;20053;-60
2022/06/08 03:27:37;;;;;;;5.18;2.25;;;;;;;11.66;85.34;95500.75;5098523;28;20398;-60
2022/06/08 03:30:05;;;;;;;1.70;1.60;;;;;;;11.62;85.29;95483.56;5102518;28;20080;-60
2022/06/08 03:32:30;;;;;;;4.55;2.00;;;;;;;11.70;84.13;95485.41;5095017;28;20035;-61
2022/06/08 03:34:56;;;;;;;1.85;1.70;;;;;;;11.65;85.19;95488.53;5099909;28;20028;-61
2022/06/08 03:37:21;;;;;;;2.80;1.80;;;;;;;11.69;84.33;95483.78;5103845;28;20023;-60
2022/06/08 03:39:46;;;;;;;2.88;1.55;;;;;;;11.71;84.79;95482.66;5095393;28;20024;-61
2022/06/08 03:42:12;;;;;;;1.88;1.77;;;;;;;11.67;86.18;95483.94;5104362;28;20478;-59
2022/06/08 03:44:37;;;;;;;2.03;1.92;;;;;;;11.64;86.24;95484.25;5095258;28;20439;-60
2022/06/08 03:47:16;;;;;;;2.25;1.90;;;;;;;11.64;85.15;95486.03;5099566;28;20071;-60
2022/06/08 03:49:42;;;;;;;3.55;2.03;;;;;;;11.68;85.01;95479.47;5092165;28;20397;-60
2022/06/08 03:52:12;;;;;;;5.60;1.83;;;;;;;11.72;86.01;95484.28;5100595;28;20108;-60
2022/06/08 03:54:44;;;;;;;2.60;1.90;;;;;;;11.68;87.00;95484.75;5093413;28;20024;-60
2022/06/08 03:57:11;;;;;;;2.10;1.80;;;;;;;11.72;85.90;95472.94;5098439;28;20040;-60
2022/06/08 03:59:40;;;;;;;2.70;1.90;;;;;;;11.77;85.72;95469.81;5095090;28;20110;-61
2022/06/08 04:02:07;;;;;;;1.80;1.70;;;;;;;11.85;84.56;95465.44;5099607;28;20418;-59
2022/06/08 04:04:33;;;;;;;5.38;1.92;;;;;;;11.88;85.66;95461.66;5095945;28;20032;-60
2022/06/08 04:06:58;;;;;;;3.83;1.92;;;;;;;11.88;85.12;95461.66;5090486;28;20031;-60
2022/06/08 04:09:24;;;;;;;2.00;1.90;;;;;;;11.80;87.05;95458.94;5090708;28;20016;-60
2022/06/08 04:11:50;;;;;;;2.28;1.90;;;;;;;11.79;86.47;95452.03;5090267;28;20020;-60
2022/06/08 04:14:16;;;;;;;7.30;2.10;;;;;;;11.84;86.28;95450.59;5104116;28;20502;-60
2022/06/08 04:16:41;;;;;;;2.45;2.25;;;;;;;11.90;86.03;95446.50;5090480;28;20119;-60
2022/06/08 04:19:06;;;;;;;2.40;2.20;;;;;;;11.89;86.40;95448.28;5090211;28;20581;-60
2022/06/08 04:21:32;;;;;;;10.48;2.10;;;;;;;11.92;85.77;95463.00;5097616;28;20032;-60
2022/06/08 04:24:00;;;;;;;2.00;1.90;;;;;;;12.02;84.63;95461.09;5094212;28;20078;-60
2022/06/08 04:26:26;;;;;;;2.55;1.70;;;;;;;12.12;83.83;95460.16;5090396;28;20541;-60
2022/06/08 04:28:52;;;;;;;2.75;1.90;;;;;;;12.14;83.90;95455.56;5104552;28;20070;-60
2022/06/08 04:31:19;;;;;;;4.35;1.98;;;;;;;12.10;83.43;95468.22;5098446;28;20461;-60
2022/06/08 04:33:44;;;;;;;2.67;1.98;;;;;;;12.12;82.85;95474.19;5110438;28;20024;-59
2022/06/08 04:36:10;;;;;;;2.28;1.88;;;;;;;12.37;80.87;95470.84;5110213;28;20539;-60
2022/06/08 04:38:36;;;;;;;4.72;1.67;;;;;;;12.47;80.30;95479.44;5110742;28;20020;-60
2022/06/08 04:41:03;;;;;;;4.65;1.77;;;;;;;12.30;80.95;95489.97;5107622;28;20534;-59
2022/06/08 04:43:28;;;;;;;2.17;1.92;;;;;;;12.23;81.59;95480.19;5110616;28;20027;-60
2022/06/08 04:45:54;;;;;;;4.25;1.80;;;;;;;12.13;84.06;95485.56;5099532;28;20024;-60
2022/06/08 04:48:20;;;;;;;1.90;1.80;;;;;;;12.20;82.76;95481.31;5107694;28;20062;-60
2022/06/08 04:50:45;;;;;;;2.83;1.60;;;;;;;12.25;83.16;95486.94;5105174;28;20040;-60
2022/06/08 04:53:11;;;;;;;2.35;1.83;;;;;;;12.31;82.61;95483.69;5100918;28;20019;-60
2022/06/08 04:55:37;;;;;;;10.02;2.00;;;;;;;12.42;81.71;95479.09;5110193;28;20050;-60
2022/06/08 04:58:03;;;;;;;3.88;1.98;;;;;;;12.39;82.67;95471.50;5103581;28;20020;-60
2022/06/08 05:00:30;;;;;;;2.83;2.22;;;;;;;12.46;82.38;95470.72;5110278;28;20433;-60
2022/06/08 05:02:55;;;;;;;3.90;2.00;;;;;;;12.45;83.36;95468.22;5110115;28;20473;-60
2022/06/08 05:05:31;;;;;;;3.05;2.20;;;;;;;12.47;83.77;95466.25;5105468;28;20039;-60
2022/06/08 05:07:58;;;;;;;2.80;2.20;;;;;;;12.54;83.12;95455.88;5090649;28;20035;-60
2022/06/08 05:10:26;;;;;;;4.50;2.30;;;;;;;12.56;83.11;95444.19;5089849;28;20020;-60
2022/06/08 05:12:52;;;;;;;6.88;2.03;;;;;;;12.47;83.48;95431.91;5089873;28;20044;-60
2022/06/08 05:15:21;;;;;;;2.13;1.92;;;;;;;12.50;83.35;95417.59;5089454;28;20121;-60
2022/06/08 05:17:46;;;;;;;2.03;1.83;;;;;;;12.45;84.03;95415.41;5089741;28;20406;-60
2022/06/08 05:20:14;;;;;;;4.18;2.10;;;;;;;12.42;84.16;95410.47;5089500;28;20024;-60
2022/06/08 05:22:39;;;;;;;2.05;1.95;;;;;;;12.41;83.67;95408.81;5097993;28;20030;-60
2022/06/08 05:25:07;;;;;;;1.90;1.80;;;;;;;12.61;82.60;95402.28;5089001;28;20094;-59
2022/06/08 05:27:32;;;;;;;2.22;2.10;;;;;;;12.70;83.94;95408.41;5094097;28;20019;-61
2022/06/08 05:29:57;;;;;;;5.10;2.20;;;;;;;12.84;81.99;95398.19;5106915;28;20070;-60
2022/06/08 05:32:23;;;;;;;2.22;2.03;;;;;;;13.01;80.75;95399.03;5105818;28;20026;-60
2022/06/08 05:34:49;;;;;;;5.13;2.45;;;;;;;13.49;77.33;95395.72;5109996;28;20039;-60
2022/06/08 05:37:14;;;;;;;2.83;2.08;;;;;;;13.40;78.09;95390.44;5109838;28;20039;-60
2022/06/08 05:39:41;;;;;;;9.15;2.45;;;;;;;13.42;78.09;95401.66;5109372;28;20077;-59
2022/06/08 05:42:07;;;;;;;4.32;2.33;;;;;;;13.35;78.68;95395.38;5100066;28;20020;-60
2022/06/08 05:44:33;;;;;;;7.97;2.08;;;;;;;13.33;79.19;95402.66;5107707;28;20023;-60
2022/06/08 05:46:58;;;;;;;4.90;2.25;;;;;;;13.44;78.44;95405.00;5109582;28;20068;-60
2022/06/08 05:49:24;;;;;;;2.80;1.90;;;;;;;13.46;78.90;95399.53;5109694;28;20031;-60
2022/06/08 05:51:49;;;;;;;5.30;2.00;;;;;;;13.55;79.33;95395.06;5099244;28;20031;-60
2022/06/08 05:54:14;;;;;;;4.80;2.00;;;;;;;13.64;78.88;95399.34;5094050;28;20024;-60
2022/06/08 05:56:40;;;;;;;15.10;2.53;;;;;;;13.64;81.75;95402.00;5098412;28;20130;-60
2022/06/08 05:59:07;;;;;;;1.83;1.73;;;;;;;13.64;81.20;95403.81;5094099;28;20155;-60
2022/06/08 06:01:33;;;;;;;3.72;1.98;;;;;;;13.61;80.70;95411.09;5096971;28;20131;-60
2022/06/08 06:04:02;;;;;;;1.95;1.75;;;;;;;13.58;80.09;95410.59;5094412;28;20067;-60
2022/06/08 06:06:29;;;;;;;3.05;2.03;;;;;;;13.65;81.72;95405.47;5093089;28;20060;-60
2022/06/08 06:08:54;;;;;;;2.03;1.73;;;;;;;13.77;81.31;95405.94;5095223;28;20114;-59
2022/06/08 06:11:20;;;;;;;3.75;2.00;;;;;;;13.84;81.39;95418.31;5094284;28;20103;-60
2022/06/08 06:13:46;;;;;;;1.70;1.60;;;;;;;13.90;79.64;95403.59;5092393;28;20110;-60
2022/06/08 06:16:11;;;;;;;2.15;1.95;;;;;;;13.97;79.03;95416.97;5094811;28;20115;-59
2022/06/08 06:18:36;;;;;;;3.00;2.10;;;;;;;14.06;78.73;95418.59;5092645;28;20042;-60
2022/06/08 06:21:02;;;;;;;7.55;2.30;;;;;;;14.11;77.58;95426.03;5098461;28;20467;-61
2022/06/08 06:23:28;;;;;;;1.50;1.50;;;;;;;14.12;76.80;95423.19;5104832;28;20035;-61
2022/06/08 06:25:53;;;;;;;1.70;1.60;;;;;;;14.26;76.92;95424.31;5106214;28;20028;-61
2022/06/08 06:28:19;;;;;;;2.90;1.60;;;;;;;14.46;76.59;95424.72;5105461;28;20394;-60
2022/06/08 06:30:44;;;;;;;2.03;1.73;;;;;;;14.68;74.75;95434.72;5097433;28;20085;-60
2022/06/08 06:33:12;;;;;;;1.90;1.65;;;;;;;14.96;72.74;95435.06;5100429;28;20024;-60
2022/06/08 06:35:38;;;;;;;3.75;1.73;;;;;;;15.07;72.26;95436.50;5096604;28;20053;-60
2022/06/08 06:38:04;;;;;;;2.90;1.77;;;;;;;15.32;70.90;95433.66;5096124;28;20107;-61
2022/06/08 06:40:29;;;;;;;2.08;1.60;;;;;;;15.56;70.73;95437.94;5101981;28;20058;-61
2022/06/08 06:42:55;;;;;;;4.35;2.92;;;;;;;15.71;70.49;95437.97;5100617;28;20062;-61
2022/06/08 06:45:20;;;;;;;2.55;1.52;;;;;;;15.88;69.89;95435.16;5095043;28;20024;-61
2022/06/08 06:47:46;;;;;;;1.67;1.58;;;;;;;16.08;69.43;95434.66;5101894;28;20451;-61
2022/06/08 06:50:14;;;;;;;1.77;1.67;;;;;;;16.21;67.33;95431.38;5093782;28;20032;-60
2022/06/08 06:52:40;;;;;;;3.67;1.80;;;;;;;16.38;67.16;95427.53;5100619;28;20104;-61
2022/06/08 06:55:05;;;;;;;1.77;1.67;;;;;;;16.45;65.74;95415.13;5096002;27;20096;-61
2022/06/08 06:57:31;;;;;;;3.72;1.52;;;;;;;16.52;66.84;95407.25;5102860;27;20039;-61
2022/06/08 06:59:56;;;;;;;4.80;1.70;;;;;;;16.79;67.65;95407.53;5103695;28;20016;-61
2022/06/08 07:02:22;;;;;;;2.80;1.48;;;;;;;17.33;61.49;95398.28;5102136;28;20887;-60
2022/06/08 07:04:49;;;;;;;3.83;1.55;;;;;;;17.96;59.59;95391.34;5105417;28;20482;-60
2022/06/08 07:07:16;;;;;;;6.82;1.80;;;;;;;18.34;59.83;95387.47;5102570;28;20520;-61
2022/06/08 07:09:42;;;;;;;3.00;2.80;;;;;;;18.19;58.19;95379.63;5101971;28;20023;-61
2022/06/08 07:12:10;;;;;;;2.40;2.20;;;;;;;18.26;57.71;95375.16;5104968;28;20064;-61
2022/06/08 07:14:36;;;;;;;4.32;1.85;;;;;;;18.21;58.48;95374.91;5093866;28;20111;-60
2022/06/08 07:17:01;;;;;;;3.92;1.70;;;;;;;18.40;56.95;95367.22;5097837;28;20102;-61
2022/06/08 07:19:27;;;;;;;2.30;1.58;;;;;;;18.74;55.26;95370.81;5106001;28;20043;-61
2022/06/08 07:21:52;;;;;;;2.15;1.35;;;;;;;18.73;54.89;95377.19;5101401;28;20031;-61
2022/06/08 07:24:21;;;;;;;2.33;1.48;;;;;;;18.45;54.52;95365.59;5095020;28;20013;-61
2022/06/08 07:26:48;;;;;;;7.68;1.30;;;;;;;18.01;56.33;95372.97;5105067;28;20406;-60
2022/06/08 07:29:14;;;;;;;3.92;1.40;;;;;;;17.65;59.73;95368.63;5100388;28;20106;-60
2022/06/08 07:31:40;;;;;;;2.95;1.50;;;;;;;18.09;57.90;95374.66;5107751;28;20121;-61
2022/06/08 07:34:06;;;;;;;1.45;1.35;;;;;;;18.29;56.87;95381.94;5102320;28;20024;-60
2022/06/08 07:36:32;;;;;;;1.17;1.05;;;;;;;18.65;54.26;95382.69;5107392;28;20501;-60
2022/06/08 07:38:57;;;;;;;1.55;1.42;;;;;;;18.67;53.62;95386.78;5097683;28;20038;-60
2022/06/08 07:41:23;;;;;;;0.95;0.95;;;;;;;18.82;54.07;95393.81;5107722;28;20490;-61
2022/06/08 07:43:48;;;;;;;1.38;1.27;;;;;;;18.84;54.95;95384.59;5094815;28;20395;-60
2022/06/08 07:46:14;;;;;;;4.40;1.50;;;;;;;18.64;56.07;95381.03;5104342;28;20016;-61
2022/06/08 07:51:24;;;;;;;3.00;1.17;;;;;;;18.32;56.24;95369.03;5105915;28;20022;-61
2022/06/08 07:53:49;;;;;;;1.70;1.20;;;;;;;18.47;54.44;95368.09;5105526;28;20019;-60
2022/06/08 07:56:16;;;;;;;1.60;1.50;;;;;;;18.52;54.18;95373.63;5098973;28;20075;-60
2022/06/08 07:58:41;;;;;;;1.40;1.30;;;;;;;18.63;54.21;95368.72;5100969;28;20031;-60
2022/06/08 08:01:07;;;;;;;1.50;1.40;;;;;;;19.07;52.29;95375.41;5095853;28;20574;-61
2022/06/08 08:03:33;;;;;;;3.80;1.58;;;;;;;19.51;52.77;95369.69;5100496;28;20065;-61
2022/06/08 08:05:58;;;;;;;3.45;1.70;;;;;;;20.14;53.67;95363.06;5105488;28;20115;-60
2022/06/08 08:08:24;;;;;;;4.18;1.60;;;;;;;21.09;50.22;95350.88;5104831;28;20072;-60
2022/06/08 08:10:49;;;;;;;1.58;1.48;;;;;;;21.67;46.35;95342.84;5095318;28;20066;-61
2022/06/08 08:13:14;;;;;;;1.85;1.40;;;;;;;21.38;48.39;95340.59;5102856;28;20118;-61
2022/06/08 08:15:42;;;;;;;2.25;1.30;;;;;;;21.22;46.86;95325.06;5103941;28;20500;-61
2022/06/08 08:18:08;;;;;;;1.20;1.10;;;;;;;20.81;48.67;95317.31;5096640;28;20097;-61
2022/06/08 08:20:34;;;;;;;1.10;1.10;;;;;;;20.43;49.58;95329.63;5098952;28;20028;-61
2022/06/08 08:23:00;;;;;;;2.22;1.30;;;;;;;19.92;49.90;95331.25;5106968;28;20039;-61
2022/06/08 08:25:27;;;;;;;2.00;1.05;;;;;;;19.54;49.84;95338.06;5093616;28;20080;-61
2022/06/08 08:27:53;;;;;;;3.15;1.85;;;;;;;19.25;50.95;95323.31;5095847;28;20035;-61
2022/06/08 08:30:23;;;;;;;2.20;2.00;;;;;;;18.75;54.61;95337.81;5105297;28;20028;-60
2022/06/08 08:32:48;;;;;;;2.05;1.35;;;;;;;19.01;52.70;95333.56;5095063;28;20023;-61
2022/06/08 08:35:16;;;;;;;3.90;1.40;;;;;;;18.61;54.78;95335.09;5106301;28;20417;-60
2022/06/08 08:37:42;;;;;;;2.80;1.65;;;;;;;18.39;56.71;95337.09;5099979;28;20539;-60
2022/06/08 08:40:22;;;;;;;1.40;1.30;;;;;;;18.81;52.90;95326.31;5096542;28;20111;-61
2022/06/08 08:42:47;;;;;;;1.63;1.15;;;;;;;18.52;54.43;95332.81;5102757;28;20031;-61
2022/06/08 08:45:14;;;;;;;3.85;1.75;;;;;;;18.59;54.12;95334.47;5097917;28;20028;-60
2022/06/08 08:48:07;;;;;;;1.88;1.50;;;;;;;17.89;55.76;95331.91;5104354;28;20099;-59
2022/06/08 08:51:01;;;;;;;1.65;1.40;;;;;;;17.65;58.16;95346.50;5106938;28;20032;-60
2022/06/08 08:53:52;;;;;;;1.30;1.30;;;;;;;18.08;56.19;95341.03;5089925;28;20042;-60
2022/06/08 08:56:28;;;;;;;5.47;1.40;;;;;;;18.02;56.50;95337.34;5104222;28;20109;-61
2022/06/08 08:58:53;;;;;;;1.60;1.50;;;;;;;18.15;56.49;95339.25;5103792;28;20065;-61
2022/06/08 09:01:23;;;;;;;5.90;1.45;;;;;;;17.90;57.27;95338.88;5104671;28;20024;-61
2022/06/08 09:04:26;;;;;;;4.13;1.38;;;;;;;17.68;60.06;95341.63;5104095;28;20077;-60
2022/06/08 09:06:51;;;;;;;3.83;1.63;;;;;;;17.65;59.98;95342.03;5095391;28;20051;-60
2022/06/08 09:09:23;;;;;;;1.30;1.20;;;;;;;17.52;60.71;95349.91;5104296;28;20116;-60
2022/06/08 09:11:49;;;;;;;3.42;1.77;;;;;;;17.74;60.26;95359.47;5103445;28;20020;-60
2022/06/08 09:14:24;;;;;;;2.83;1.90;;;;;;;17.49;61.37;95364.44;5082136;28;20494;-60
2022/06/08 09:17:09;;;;;;;2.28;2.03;;;;;;;17.22;62.32;95379.34;5103957;28;20111;-61
2022/06/08 09:19:44;;;;;;;15.13;3.10;;;;;;;17.03;62.50;95378.97;5094806;28;20067;-60
2022/06/08 09:22:10;;;;;;;2.72;2.40;;;;;;;16.92;63.24;95374.97;5106190;28;20505;-61
2022/06/08 09:24:38;;;;;;;13.40;4.40;;;;;;;16.99;64.40;95365.22;5104623;28;20024;-61
2022/06/08 09:27:22;;;;;;;3.20;2.47;;;;;;;16.96;65.32;95370.09;5102367;28;20032;-61
2022/06/08 09:29:55;;;;;;;6.20;2.30;;;;;;;17.09;63.21;95386.19;5104307;28;20027;-61
2022/06/08 09:32:35;;;;;;;7.65;2.75;;;;;;;17.01;65.85;95384.47;5103702;28;20383;-60
2022/06/08 09:35:16;;;;;;;3.33;2.47;;;;;;;17.08;64.12;95389.84;5101618;28;20055;-60
2022/06/08 09:37:44;;;;;;;2.38;2.17;;;;;;;17.16;64.15;95400.38;5097262;28;20035;-61
2022/06/08 09:40:36;;;;;;;2.60;2.38;;;;;;;17.13;63.80;95407.91;5089439;28;20055;-60
2022/06/08 09:43:18;;;;;;;3.03;2.80;;;;;;;17.18;64.35;95416.97;5098730;28;20406;-61
2022/06/08 09:45:55;;;;;;;4.28;2.22;;;;;;;17.11;63.39;95421.38;5105395;28;20027;-61
2022/06/08 09:52:15;;;;;;;5.75;2.70;;;;;;;17.13;62.75;95430.03;5097860;28;20517;-60
2022/06/08 09:55:03;;;;;;;3.78;1.77;;;;;;;17.12;62.28;95441.66;5104226;28;20040;-61
2022/06/08 09:58:20;;;;;;;3.28;1.67;;;;;;;17.08;62.12;95443.06;5104516;28;20043;-60
2022/06/08 10:00:48;;;;;;;1.40;1.30;;;;;;;17.40;58.57;95446.25;5064174;28;20047;-60
2022/06/08 10:03:41;;;;;;;1.90;1.67;;;;;;;17.29;59.85;95436.09;5103183;28;20095;-60
2022/06/08 10:06:09;;;;;;;6.07;1.50;;;;;;;17.53;53.15;95437.53;5105300;28;20537;-61
2022/06/08 10:08:43;;;;;;;1.67;1.30;;;;;;;17.47;55.41;95439.13;5096337;28;20042;-60
2022/06/08 10:11:37;;;;;;;3.30;1.40;;;;;;;17.43;57.69;95437.03;5102001;28;20023;-61
2022/06/08 10:14:12;;;;;;;3.83;1.77;;;;;;;17.44;59.87;95444.00;5104176;28;20402;-60
2022/06/08 10:16:44;;;;;;;3.63;1.80;;;;;;;17.60;58.40;95445.59;5100540;28;20024;-61
2022/06/08 10:19:29;;;;;;;1.52;1.40;;;;;;;17.26;61.26;95449.78;5104339;28;20139;-60
2022/06/08 10:21:56;;;;;;;3.20;1.80;;;;;;;17.17;63.37;95447.25;5102104;28;20026;-60
2022/06/08 10:24:28;;;;;;;1.70;1.60;;;;;;;16.98;62.06;95453.16;5113072;28;20026;-60
2022/06/08 10:27:10;;;;;;;5.07;1.88;;;;;;;16.77;63.31;95446.78;5101343;28;20535;-60
2022/06/08 10:29:46;;;;;;;7.75;2.15;;;;;;;16.68;64.03;95456.69;5107207;28;20055;-60
2022/06/08 10:32:29;;;;;;;3.22;1.90;;;;;;;16.87;65.96;95455.28;5098146;28;20417;-60
2022/06/08 10:34:54;;;;;;;2.65;2.10;;;;;;;16.90;67.52;95457.56;5106744;28;20039;-60
2022/06/08 10:37:39;;;;;;;3.97;1.92;;;;;;;17.02;65.67;95465.09;5110383;28;20023;-60
2022/06/08 10:40:19;;;;;;;4.50;1.90;;;;;;;17.05;66.01;95462.03;5110313;28;20421;-60
2022/06/08 10:42:47;;;;;;;6.18;2.00;;;;;;;16.82;66.17;95460.34;5105163;28;20031;-60
2022/06/08 10:45:36;;;;;;;5.18;2.33;;;;;;;16.70;67.88;95465.31;5106012;28;20032;-60
2022/06/08 10:48:11;;;;;;;6.70;3.67;;;;;;;16.66;67.98;95465.84;5095942;28;20051;-60
2022/06/08 10:50:38;;;;;;;8.98;5.20;;;;;;;16.68;67.74;95469.16;5103633;28;20062;-60
2022/06/08 10:56:29;;;;;;;4.53;1.75;;;;;;;17.00;65.66;95461.78;5109253;28;20046;-60
2022/06/08 10:59:08;;;;;;;2.75;1.80;;;;;;;17.36;63.32;95465.44;5096235;28;20483;-61
2022/06/08 11:01:36;;;;;;;2.60;2.10;;;;;;;17.24;66.36;95467.75;5101392;28;20023;-60
2022/06/08 11:04:05;;;;;;;3.63;2.33;;;;;;;17.28;66.27;95469.03;5099689;28;20020;-60
2022/06/08 11:06:45;;;;;;;3.40;2.13;;;;;;;17.58;65.85;95472.38;5099379;28;20053;-61
2022/06/08 11:09:36;;;;;;;1.98;1.73;;;;;;;17.78;67.43;95462.91;5109426;28;20024;-60
2022/06/08 11:12:15;;;;;;;4.65;1.75;;;;;;;17.98;64.50;95463.06;5099824;28;20031;-60
2022/06/08 11:14:44;;;;;;;5.22;1.50;;;;;;;18.03;63.33;95461.53;5101897;28;20050;-60
2022/06/08 11:17:34;;;;;;;1.83;1.30;;;;;;;18.12;57.73;95469.34;5103070;28;20028;-61
2022/06/08 11:20:34;;;;;;;1.42;1.33;;;;;;;18.04;59.68;95465.81;5105502;28;20028;-60
2022/06/08 11:23:10;;;;;;;2.13;1.30;;;;;;;17.99;58.87;95470.06;5061515;28;20047;-60
2022/06/08 11:26:05;;;;;;;1.40;1.30;;;;;;;18.28;52.54;95463.72;5095199;28;20492;-60
2022/06/08 11:28:40;;;;;;;5.53;1.23;;;;;;;17.84;53.21;95451.50;5089416;28;20534;-59
2022/06/08 11:31:27;;;;;;;4.97;1.30;;;;;;;17.93;56.57;95460.97;5106900;28;20441;-60
2022/06/08 11:34:05;;;;;;;2.55;1.25;;;;;;;17.89;55.95;95462.41;5102638;28;20031;-60
2022/06/08 11:36:49;;;;;;;4.57;1.42;;;;;;;18.02;55.90;95459.03;5106208;28;20479;-60
2022/06/08 11:39:48;;;;;;;2.75;1.42;;;;;;;17.76;54.92;95455.94;5098133;28;20109;-61
2022/06/08 11:42:24;;;;;;;2.38;1.27;;;;;;;17.58;54.10;95455.63;5102785;28;20410;-59
2022/06/08 11:45:10;;;;;;;1.60;1.00;;;;;;;17.82;52.08;95453.53;5104556;28;20405;-60
2022/06/08 11:47:48;;;;;;;1.42;1.08;;;;;;;17.73;53.88;95461.66;5064557;28;20036;-59
2022/06/08 11:50:43;;;;;;;1.52;1.40;;;;;;;17.52;55.49;95459.84;5106060;28;20076;-60
2022/06/08 11:53:26;;;;;;;1.67;1.42;;;;;;;17.42;58.92;95459.34;5091176;28;20028;-59
2022/06/08 11:56:16;;;;;;;1.75;1.20;;;;;;;17.75;54.59;95464.13;5094293;28;20387;-60
2022/06/08 11:58:45;;;;;;;2.38;1.45;;;;;;;17.66;54.98;95476.75;5106767;28;20023;-59
2022/06/08 12:01:17;;;;;;;4.45;1.50;;;;;;;17.41;54.78;95474.50;5103569;28;20054;-60
2022/06/08 12:03:45;;;;;;;7.07;1.83;;;;;;;17.33;54.16;95478.09;5104822;28;20304;-60
2022/06/08 12:06:14;;;;;;;1.95;1.15;;;;;;;17.50;53.08;95475.19;5100519;28;20157;-60